Time;durP1;ratioP1;P1;durP2;ratioP2;P2;SDS_P1;SDS_P2;PMS_P1;PMS_P2;Temp;Humidity;BMP_temperature;BMP_pressure;BME280_temperature;BME280_humidity;BME280_pressure;Samples;Min_cycle;Max_cycle;Signal;HPM_P1;HPM_P2
2021/12/29 00:00:29;;;;;;;;;6.00;5.00;;;;;11.17;73.51;100302.50;5095156;27;46282;-74
2021/12/29 00:02:56;;;;;;;;;9.33;6.33;;;;;11.19;73.56;100317.25;5079997;28;46335;-74
2021/12/29 00:05:22;;;;;;;;;8.33;6.67;;;;;11.17;73.77;100319.31;5079432;28;45329;-74
2021/12/29 00:07:47;;;;;;;;;12.00;9.67;;;;;11.12;73.96;100316.38;5080004;27;45377;-74
2021/12/29 00:10:15;;;;;;;;;8.33;8.00;;;;;11.08;73.63;100326.56;5095286;27;45867;-73
2021/12/29 00:12:41;;;;;;;;;7.67;7.00;;;;;11.16;74.11;100330.94;5079747;27;45314;-73
2021/12/29 00:15:11;;;;;;;;;10.00;6.67;;;;;11.06;74.10;100325.94;5078012;28;45860;-74
2021/12/29 00:17:39;;;;;;;;;5.00;5.00;;;;;11.08;74.20;100333.72;5078478;28;45309;-74
2021/12/29 00:20:06;;;;;;;;;8.33;6.33;;;;;11.03;74.30;100328.13;5095222;27;47200;-74
2021/12/29 00:22:31;;;;;;;;;9.67;6.33;;;;;11.07;74.46;100337.38;5079462;28;47089;-74
2021/12/29 00:24:56;;;;;;;;;5.00;5.00;;;;;11.09;74.68;100351.31;5079583;27;45302;-75
2021/12/29 00:27:22;;;;;;;;;9.33;7.00;;;;;11.08;74.80;100365.63;5095478;27;45387;-74
2021/12/29 00:29:47;;;;;;;;;10.33;8.33;;;;;11.09;74.77;100361.97;5079253;27;45309;-74
2021/12/29 00:32:13;;;;;;;;;8.00;7.33;;;;;11.09;74.77;100356.63;5079440;27;45467;-74
2021/12/29 00:34:38;;;;;;;;;8.00;3.67;;;;;11.09;74.59;100361.97;5079646;27;45278;-74
2021/12/29 00:37:03;;;;;;;;;8.00;7.67;;;;;11.10;74.92;100363.59;5093807;27;45348;-75
2021/12/29 00:39:29;;;;;;;;;7.67;6.00;;;;;11.14;75.01;100380.00;5124147;27;45466;-74
2021/12/29 00:41:54;;;;;;;;;9.00;6.67;;;;;11.10;74.75;100384.88;5124062;27;45260;-74
2021/12/29 00:44:19;;;;;;;;;9.67;8.00;;;;;11.17;74.96;100401.75;5123783;27;45325;-74
2021/12/29 00:46:45;;;;;;;;;6.67;5.33;;;;;11.11;75.16;100395.31;5122724;27;45661;-74
2021/12/29 00:49:10;;;;;;;;;8.67;8.00;;;;;11.06;75.24;100389.75;5122698;27;46042;-73
2021/12/29 00:51:36;;;;;;;;;12.00;6.67;;;;;11.07;75.23;100406.53;5124016;27;45363;-73
2021/12/29 00:54:03;;;;;;;;;8.67;8.33;;;;;11.09;75.50;100404.50;5122225;27;46194;-73
2021/12/29 00:56:28;;;;;;;;;7.33;7.00;;;;;11.01;75.63;100397.44;5124273;27;45255;-74
2021/12/29 00:58:54;;;;;;;;;6.67;6.67;;;;;11.11;75.66;100416.59;5123436;27;45332;-74
2021/12/29 01:01:19;;;;;;;;;8.67;6.00;;;;;11.05;75.79;100401.38;5122409;27;47367;-74
2021/12/29 01:03:45;;;;;;;;;8.00;7.00;;;;;11.08;75.90;100418.81;5123669;27;45265;-74
2021/12/29 01:06:11;;;;;;;;;13.00;9.00;;;;;11.11;75.89;100423.78;5123847;27;45320;-73
2021/12/29 01:08:36;;;;;;;;;9.00;8.00;;;;;11.09;75.96;100421.31;5122329;27;46313;-74
2021/12/29 01:11:04;;;;;;;;;9.67;7.33;;;;;11.08;76.24;100408.19;5123330;27;45249;-75
2021/12/29 01:13:33;;;;;;;;;10.67;9.00;;;;;11.03;76.48;100403.44;5123345;27;45368;-75
2021/12/29 01:16:16;;;;;;;;;7.67;7.00;;;;;11.10;76.63;100414.97;5123668;27;45284;-75
2021/12/29 01:18:45;;;;;;;;;11.00;7.00;;;;;11.05;76.63;100401.38;5123431;27;45412;-74
2021/12/29 01:21:11;;;;;;;;;11.33;8.00;;;;;11.08;76.57;100410.84;5123210;27;46092;-74
2021/12/29 01:23:37;;;;;;;;;10.00;8.00;;;;;11.08;76.73;100405.53;5123476;27;45718;-75
2021/12/29 01:26:02;;;;;;;;;9.67;8.00;;;;;11.14;76.89;100414.59;5123575;27;45274;-75
2021/12/29 01:28:28;;;;;;;;;9.00;8.33;;;;;11.09;76.91;100421.31;5121672;27;46799;-74
2021/12/29 01:30:54;;;;;;;;;9.67;5.67;;;;;11.16;76.81;100429.34;5123267;27;45313;-74
2021/12/29 01:33:19;;;;;;;;;8.33;6.00;;;;;11.08;76.87;100410.84;5123260;27;45324;-74
2021/12/29 01:35:44;;;;;;;;;10.00;7.00;;;;;11.08;77.03;100416.97;5101977;27;45464;-75
2021/12/29 01:38:10;;;;;;;;;8.67;7.67;;;;;11.15;77.05;100425.06;5104290;27;45516;-74
2021/12/29 01:40:36;;;;;;;;;8.00;8.00;;;;;11.16;77.33;100412.59;5101128;27;47444;-74
2021/12/29 01:43:04;;;;;;;;;7.67;6.00;;;;;11.17;77.32;100428.34;5102646;27;45455;-74
2021/12/29 01:45:29;;;;;;;;;9.67;7.00;;;;;11.11;77.17;100418.47;5100845;27;45395;-74
2021/12/29 01:47:55;;;;;;;;;8.33;8.33;;;;;11.01;77.14;100396.66;5101636;27;45206;-74
2021/12/29 01:50:21;;;;;;;;;13.00;10.33;;;;;11.11;77.54;100421.13;5100987;27;47169;-74
2021/12/29 01:52:54;;;;;;;;;10.67;8.00;;;;;11.16;77.72;100421.38;5102177;27;45228;-75
2021/12/29 01:55:19;;;;;;;;;10.33;10.00;;;;;11.13;77.57;100418.28;5102427;27;45313;-75
2021/12/29 01:57:45;;;;;;;;;8.67;8.00;;;;;11.14;77.80;100427.91;5102209;27;45233;-74
2021/12/29 02:00:15;;;;;;;;;10.00;8.33;;;;;11.10;77.67;100424.75;5100468;27;47613;-74
2021/12/29 02:02:40;;;;;;;;;7.67;6.33;;;;;11.16;77.63;100437.31;5100910;27;45900;-75
2021/12/29 02:05:06;;;;;;;;;9.67;8.00;;;;;11.10;77.77;100428.25;5100653;27;45296;-74
2021/12/29 02:07:32;;;;;;;;;6.00;6.00;;;;;11.07;77.73;100433.94;5102145;27;45583;-74
2021/12/29 02:09:58;;;;;;;;;11.00;7.00;;;;;11.07;78.02;100436.59;5101924;27;46897;-74
2021/12/29 02:12:23;;;;;;;;;11.00;9.00;;;;;11.06;77.88;100439.44;5100683;27;45939;-73
2021/12/29 02:14:48;;;;;;;;;8.67;7.33;;;;;11.07;77.72;100447.25;5101781;27;45975;-74
2021/12/29 02:17:14;;;;;;;;;10.00;8.33;;;;;11.09;77.80;100449.72;5101934;27;45303;-73
2021/12/29 02:19:45;;;;;;;;;7.67;7.33;;;;;11.11;78.17;100453.03;5100454;27;46902;-74
2021/12/29 02:27:51;;;;;;;;;10.00;10.00;;;;;11.02;78.22;100435.53;5101504;27;45308;-74
2021/12/29 02:30:20;;;;;;;;;8.67;8.00;;;;;11.11;78.41;100450.38;5101260;27;45330;-74
2021/12/29 02:32:46;;;;;;;;;7.33;6.33;;;;;11.14;78.42;100451.84;5100182;27;45342;-74
2021/12/29 02:35:13;;;;;;;;;10.00;7.33;;;;;11.13;78.80;100452.84;5100493;27;45333;-75
2021/12/29 02:37:39;;;;;;;;;11.33;11.00;;;;;11.11;78.84;100451.19;5110484;27;46021;-75
2021/12/29 02:40:06;;;;;;;;;9.00;6.67;;;;;11.12;78.56;100449.34;5121924;27;45239;-74
2021/12/29 02:42:39;;;;;;;;;9.33;7.67;;;;;11.16;78.65;100458.59;5122256;27;45298;-74
2021/12/29 02:45:07;;;;;;;;;8.00;7.00;;;;;11.14;78.96;100457.16;5121931;27;45209;-74
2021/12/29 02:47:32;;;;;;;;;12.33;10.67;;;;;11.15;78.75;100459.63;5122051;27;45434;-74
2021/12/29 02:49:58;;;;;;;;;9.00;9.00;;;;;11.13;78.85;100452.84;5121735;27;46125;-74
2021/12/29 02:52:24;;;;;;;;;13.33;7.33;;;;;11.16;78.90;100455.16;5121818;27;45383;-74
2021/12/29 02:54:50;;;;;;;;;8.00;6.00;;;;;11.16;79.11;100450.63;5122309;27;45376;-74
2021/12/29 02:57:16;;;;;;;;;9.33;5.67;;;;;11.11;79.08;100437.06;5120505;27;46248;-74
2021/12/29 02:59:42;;;;;;;;;8.33;7.67;;;;;11.11;79.39;100440.53;5119900;27;47427;-74
2021/12/29 03:02:07;;;;;;;;;12.67;8.67;;;;;11.10;79.74;100446.03;5121848;27;45332;-74
2021/12/29 03:04:33;;;;;;;;;10.33;8.00;;;;;11.13;79.81;100458.97;5120492;27;45723;-74
2021/12/29 03:06:58;;;;;;;;;8.00;6.00;;;;;11.14;79.86;100457.16;5121756;27;45509;-74
2021/12/29 03:09:24;;;;;;;;;8.33;6.33;;;;;11.13;80.15;100456.31;5121667;27;45211;-74
2021/12/29 03:11:49;;;;;;;;;10.67;8.67;;;;;11.15;80.34;100462.28;5120417;27;45199;-74
2021/12/29 03:14:16;;;;;;;;;8.00;8.00;;;;;10.99;80.44;100431.41;5121511;27;45329;-74
2021/12/29 03:16:42;;;;;;;;;7.00;7.00;;;;;11.06;80.20;100447.44;5121569;27;45297;-75
2021/12/29 03:19:08;;;;;;;;;9.33;6.00;;;;;11.08;80.44;100451.53;5121351;27;45990;-75
2021/12/29 03:21:34;;;;;;;;;7.33;6.67;;;;;11.06;80.66;100440.28;5120219;27;45314;-75
2021/12/29 03:24:01;;;;;;;;;7.33;7.33;;;;;11.09;80.73;100452.38;5121817;27;45305;-74
2021/12/29 03:26:26;;;;;;;;;7.00;5.00;;;;;11.09;80.88;100453.22;5120050;27;45963;-74
2021/12/29 03:28:53;;;;;;;;;6.00;6.00;;;;;11.09;81.09;100439.09;5121054;27;46075;-74
2021/12/29 03:31:21;;;;;;;;;7.67;4.00;;;;;11.05;81.46;100427.97;5120187;27;45239;-74
2021/12/29 03:33:47;;;;;;;;;9.67;7.00;;;;;11.10;81.31;100441.56;5121518;27;45339;-74
2021/12/29 03:36:14;;;;;;;;;7.00;6.00;;;;;11.04;81.24;100430.84;5120024;27;45777;-74
2021/12/29 03:38:41;;;;;;;;;8.00;6.00;;;;;11.05;81.66;100437.81;5100632;27;47468;-74
2021/12/29 03:41:12;;;;;;;;;9.00;9.00;;;;;11.08;81.58;100440.09;5100452;27;45145;-74
2021/12/29 03:43:39;;;;;;;;;8.00;7.67;;;;;11.10;81.76;100443.38;5098768;27;45369;-74
2021/12/29 03:46:06;;;;;;;;;9.00;6.33;;;;;11.11;81.77;100445.06;5099189;27;46558;-74
2021/12/29 03:48:33;;;;;;;;;8.00;5.00;;;;;11.10;81.68;100452.19;5100461;27;45293;-74
2021/12/29 03:50:59;;;;;;;;;7.00;7.00;;;;;11.08;81.58;100445.44;5100435;27;45129;-74
2021/12/29 03:53:27;;;;;;;;;11.00;7.00;;;;;11.06;81.81;100439.44;5099206;27;45355;-74
2021/12/29 03:55:54;;;;;;;;;8.00;6.00;;;;;11.05;82.06;100435.16;5100321;27;45498;-74
2021/12/29 03:58:21;;;;;;;;;5.67;5.33;;;;;11.05;81.82;100443.13;5100009;27;45294;-75
2021/12/29 04:00:49;;;;;;;;;8.67;8.33;;;;;11.03;82.05;100442.47;5100369;27;45194;-74
2021/12/29 04:03:15;;;;;;;;;5.00;4.67;;;;;10.99;81.84;100434.88;5100516;27;45603;-74
2021/12/29 04:05:41;;;;;;;;;7.00;4.33;;;;;10.95;82.21;100430.94;5098765;27;45368;-75
2021/12/29 04:08:07;;;;;;;;;7.67;7.67;;;;;10.91;82.45;100428.81;5100184;27;45372;-74
2021/12/29 04:10:33;;;;;;;;;6.00;6.00;;;;;10.81;82.44;100416.63;5099659;27;45310;-76
2021/12/29 04:12:59;;;;;;;;;6.33;5.00;;;;;10.93;82.14;100432.94;5098966;27;45347;-75
2021/12/29 04:15:25;;;;;;;;;7.00;7.00;;;;;10.91;83.02;100426.16;5099848;27;45281;-75
2021/12/29 04:17:51;;;;;;;;;7.00;5.33;;;;;10.87;82.75;100412.44;5100076;27;45914;-74
2021/12/29 04:23:07;;;;;;;;;5.67;4.00;;;;;10.88;83.00;100430.03;5100078;27;45337;-74
2021/12/29 04:25:36;;;;;;;;;5.67;5.00;;;;;10.89;83.04;100434.31;5099949;27;45447;-74
2021/12/29 04:28:04;;;;;;;;;7.67;5.67;;;;;10.89;83.18;100436.19;5098529;27;48110;-74
2021/12/29 04:30:31;;;;;;;;;6.33;5.00;;;;;10.84;82.82;100434.88;5098423;27;45249;-74
2021/12/29 04:32:56;;;;;;;;;4.00;4.00;;;;;10.77;83.15;100418.00;5100167;27;45384;-74
2021/12/29 04:35:22;;;;;;;;;9.33;5.33;;;;;10.83;83.23;100440.38;5099865;27;45322;-74
2021/12/29 04:37:49;;;;;;;;;6.67;6.33;;;;;10.84;83.32;100442.84;5111578;27;45316;-75
2021/12/29 04:40:15;;;;;;;;;7.67;5.00;;;;;10.85;83.21;100438.38;5119008;27;45254;-74
2021/12/29 04:42:40;;;;;;;;;8.33;4.67;;;;;10.81;83.38;100429.91;5120642;27;45336;-75
2021/12/29 04:45:06;;;;;;;;;8.33;7.67;;;;;10.71;83.60;100421.41;5120042;27;45146;-75
2021/12/29 04:47:32;;;;;;;;;2.67;2.67;;;;;10.80;83.48;100433.59;5118957;27;46902;-75
2021/12/29 04:50:00;;;;;;;;;6.67;6.67;;;;;10.80;83.50;100435.41;5120420;27;45385;-75
2021/12/29 04:52:27;;;;;;;;;4.00;3.00;;;;;10.78;83.51;100430.31;5120177;27;45413;-76
2021/12/29 04:54:53;;;;;;;;;6.00;5.00;;;;;10.75;83.89;100425.34;5118807;27;46094;-75
2021/12/29 04:57:18;;;;;;;;;7.67;5.33;;;;;10.70;83.81;100411.78;5120103;27;46084;-75
2021/12/29 04:59:44;;;;;;;;;7.00;5.00;;;;;10.74;83.70;100429.00;5118448;27;45343;-76
2021/12/29 05:02:10;;;;;;;;;5.00;4.00;;;;;10.65;83.95;100409.66;5120348;27;45507;-76
2021/12/29 05:04:45;;;;;;;;;4.00;4.00;;;;;10.70;84.09;100415.28;5119889;27;45537;-75
2021/12/29 05:09:55;;;;;;;;;6.00;6.00;;;;;10.72;84.24;100415.09;5119920;27;45269;-75
2021/12/29 05:12:20;;;;;;;;;4.33;4.00;;;;;10.69;83.97;100405.63;5120239;27;45242;-75
2021/12/29 05:14:46;;;;;;;;;5.67;4.67;;;;;10.64;84.05;100396.56;5119717;27;45201;-74
2021/12/29 05:17:11;;;;;;;;;4.00;4.00;;;;;10.67;84.18;100402.34;5120043;27;45293;-74
2021/12/29 05:19:36;;;;;;;;;5.67;5.67;;;;;10.66;84.19;100402.53;5119945;27;45318;-75
2021/12/29 05:22:03;;;;;;;;;4.33;4.33;;;;;10.63;84.32;100386.94;5120717;27;45425;-74
2021/12/29 05:24:29;;;;;;;;;6.00;4.67;;;;;10.65;84.58;100398.22;5122151;27;47341;-76
2021/12/29 05:26:55;;;;;;;;;6.33;5.00;;;;;10.66;84.81;100390.06;5123240;27;45326;-76
2021/12/29 05:29:20;;;;;;;;;6.00;4.00;;;;;10.59;84.90;100373.19;5123064;27;45379;-75
2021/12/29 05:31:45;;;;;;;;;6.00;5.67;;;;;10.67;84.59;100386.41;5123510;27;45308;-76
2021/12/29 05:34:11;;;;;;;;;5.00;5.00;;;;;10.67;85.08;100396.19;5105406;27;47622;-76
2021/12/29 05:36:36;;;;;;;;;2.33;2.33;;;;;10.57;84.82;100378.69;5089643;27;47308;-76
2021/12/29 05:39:03;;;;;;;;;5.00;5.00;;;;;10.63;84.91;100385.13;5123236;27;45317;-75
2021/12/29 05:41:28;;;;;;;;;5.67;5.00;;;;;10.65;85.36;100382.28;5123290;27;45241;-75
2021/12/29 05:43:53;;;;;;;;;5.67;5.67;;;;;10.63;84.80;100381.63;5122781;27;45250;-75
2021/12/29 05:46:19;;;;;;;;;7.33;7.00;;;;;10.62;85.48;100380.00;5121695;27;48045;-75
2021/12/29 05:48:45;;;;;;;;;4.00;4.00;;;;;10.67;85.31;100374.94;5123241;27;45300;-75
2021/12/29 05:51:12;;;;;;;;;5.00;5.00;;;;;10.65;85.43;100382.28;5121708;27;45366;-75
2021/12/29 05:53:41;;;;;;;;;4.00;4.00;;;;;10.59;85.46;100367.88;5122760;27;45462;-75
2021/12/29 05:56:08;;;;;;;;;3.00;3.00;;;;;10.67;85.41;100388.22;5122848;27;45952;-75
2021/12/29 05:58:35;;;;;;;;;3.67;3.00;;;;;10.68;85.52;100381.88;5122607;27;45354;-75
2021/12/29 06:01:00;;;;;;;;;4.33;3.00;;;;;10.64;85.35;100376.13;5123004;27;45261;-75
2021/12/29 06:03:26;;;;;;;;;2.67;2.67;;;;;10.69;85.18;100383.56;5122661;27;45466;-75
2021/12/29 06:05:51;;;;;;;;;4.00;4.00;;;;;10.68;85.31;100382.72;5122838;27;45403;-75
2021/12/29 06:08:17;;;;;;;;;3.33;3.00;;;;;10.64;85.29;100373.47;5122735;27;45296;-75
2021/12/29 06:10:42;;;;;;;;;3.00;3.00;;;;;10.60;85.54;100364.22;5122912;27;45446;-76
2021/12/29 06:13:08;;;;;;;;;4.00;3.67;;;;;10.70;85.87;100383.38;5122662;27;45275;-76
2021/12/29 06:15:33;;;;;;;;;3.00;3.00;;;;;10.72;85.69;100378.69;5121174;27;47085;-76
2021/12/29 06:17:59;;;;;;;;;3.00;3.00;;;;;10.65;85.89;100361.03;5122735;27;45189;-76
2021/12/29 06:20:25;;;;;;;;;3.00;3.00;;;;;10.69;85.50;100360.44;5122606;27;45193;-76
2021/12/29 06:22:50;;;;;;;;;4.00;3.00;;;;;10.70;85.96;100367.44;5122631;27;45587;-76
2021/12/29 06:25:17;;;;;;;;;3.00;3.00;;;;;10.75;86.03;100377.50;5122316;27;46170;-76
2021/12/29 06:27:43;;;;;;;;;3.00;1.00;;;;;10.72;85.98;100368.06;5122533;27;45305;-77
2021/12/29 06:30:11;;;;;;;;;4.33;4.00;;;;;10.76;86.28;100375.66;5120899;27;45322;-76
2021/12/29 06:32:37;;;;;;;;;2.00;2.00;;;;;10.72;85.98;100369.91;5122126;27;45198;-76
2021/12/29 06:35:03;;;;;;;;;2.00;2.00;;;;;10.67;86.25;100364.31;5122239;27;45325;-77
2021/12/29 06:37:28;;;;;;;;;2.00;2.00;;;;;10.72;86.54;100375.22;5113239;27;45258;-76
2021/12/29 06:39:54;;;;;;;;;2.00;2.00;;;;;10.73;86.10;100379.50;5101748;27;45114;-76
2021/12/29 06:42:19;;;;;;;;;2.00;2.00;;;;;10.67;86.21;100367.78;5100265;27;46098;-77
2021/12/29 06:44:46;;;;;;;;;0.00;0.00;;;;;10.72;86.54;100383.19;5101231;27;45430;-76
2021/12/29 06:47:13;;;;;;;;;1.00;1.00;;;;;10.75;86.52;100376.69;5100232;27;45351;-76
2021/12/29 06:49:38;;;;;;;;;2.67;1.67;;;;;10.77;86.54;100375.47;5101617;27;45380;-77
2021/12/29 06:52:04;;;;;;;;;2.00;1.67;;;;;10.80;86.53;100384.91;5100084;27;45895;-77
2021/12/29 06:54:31;;;;;;;;;1.00;1.00;;;;;10.80;86.55;100387.56;5101456;27;45308;-76
2021/12/29 06:56:56;;;;;;;;;0.00;0.00;;;;;10.75;86.44;100374.84;5101265;27;45202;-77
2021/12/29 06:59:21;;;;;;;;;3.67;1.67;;;;;10.77;86.58;100372.00;5101174;27;45202;-76
2021/12/29 07:01:47;;;;;;;;;1.00;1.00;;;;;10.78;86.58;100373.66;5100118;27;45470;-76
2021/12/29 07:04:12;;;;;;;;;0.33;0.00;;;;;10.77;86.52;100364.03;5118467;27;45655;-76
2021/12/29 07:06:38;;;;;;;;;1.67;1.67;;;;;10.79;86.80;100364.66;5120260;27;45347;-75
2021/12/29 07:09:04;;;;;;;;;1.00;1.00;;;;;10.78;86.67;100366.50;5105976;27;45302;-76
2021/12/29 07:11:30;;;;;;;;;1.33;1.00;;;;;10.77;86.43;100369.34;5098557;27;45590;-76
2021/12/29 07:13:59;;;;;;;;;2.00;1.00;;;;;10.80;86.59;100364.47;5099188;27;45629;-76
2021/12/29 07:16:24;;;;;;;;;2.00;2.00;;;;;10.86;86.47;100363.75;5099623;27;45384;-76
2021/12/29 07:18:50;;;;;;;;;1.00;1.00;;;;;10.83;86.67;100372.09;5099690;27;45408;-76
2021/12/29 07:21:16;;;;;;;;;1.67;1.33;;;;;10.87;86.78;100372.56;5100856;27;45202;-76
2021/12/29 07:23:41;;;;;;;;;1.33;1.33;;;;;10.86;86.91;100373.53;5099259;27;47401;-77
2021/12/29 07:26:07;;;;;;;;;2.00;2.00;;;;;10.86;86.87;100371.72;5094069;27;45480;-77
2021/12/29 07:28:32;;;;;;;;;0.67;0.67;;;;;10.91;86.89;100381.81;5091515;27;45143;-76
2021/12/29 07:30:58;;;;;;;;;2.00;1.00;;;;;10.88;86.65;100376.84;5100566;27;45340;-76
2021/12/29 07:33:23;;;;;;;;;2.33;2.00;;;;;10.91;86.99;100376.47;5080852;27;46145;-77
2021/12/29 07:35:49;;;;;;;;;2.33;1.33;;;;;10.93;86.99;100369.13;5078839;28;45378;-76
2021/12/29 07:38:14;;;;;;;;;5.33;5.33;;;;;10.82;86.92;100356.31;5111049;27;45322;-76
2021/12/29 07:40:40;;;;;;;;;3.67;3.67;;;;;10.92;86.99;100378.13;5117726;27;45458;-76
2021/12/29 07:43:05;;;;;;;;;3.33;3.33;;;;;10.83;87.11;100365.94;5091718;27;46158;-76
2021/12/29 07:45:31;;;;;;;;;1.00;1.00;;;;;10.83;87.46;100366.75;5079091;27;45350;-76
2021/12/29 07:47:57;;;;;;;;;3.67;3.67;;;;;10.91;87.08;100383.63;5080381;27;45479;-77
2021/12/29 07:50:22;;;;;;;;;7.00;7.00;;;;;10.93;87.12;100393.06;5089055;27;45463;-76
2021/12/29 07:52:48;;;;;;;;;8.33;8.33;;;;;10.95;86.94;100387.56;5088945;27;45455;-76
2021/12/29 07:55:18;;;;;;;;;8.33;8.33;;;;;10.96;87.17;100389.22;5085078;27;45381;-76
2021/12/29 07:57:45;;;;;;;;;4.00;4.00;;;;;10.97;86.71;100397.03;5089710;27;45613;-76
2021/12/29 08:00:12;;;;;;;;;3.00;3.00;;;;;10.89;87.52;100377.69;5087096;27;45936;-76
2021/12/29 08:02:37;;;;;;;;;3.00;3.00;;;;;10.82;87.23;100374.94;5089266;27;46498;-76
2021/12/29 08:05:08;;;;;;;;;4.00;2.67;;;;;10.92;87.46;100402.06;5092313;27;45576;-76
2021/12/29 08:07:36;;;;;;;;;1.67;1.00;;;;;10.86;87.46;100393.00;5096179;27;45334;-76
2021/12/29 08:10:02;;;;;;;;;1.00;1.00;;;;;10.96;87.66;100399.84;5087617;27;45294;-76
2021/12/29 08:12:28;;;;;;;;;2.00;2.00;;;;;10.89;87.53;100389.13;5087603;27;45389;-76
2021/12/29 08:14:53;;;;;;;;;3.00;3.00;;;;;10.94;87.89;100386.75;5082734;27;45270;-76
2021/12/29 08:17:19;;;;;;;;;2.67;2.67;;;;;10.89;87.68;100386.47;5088082;27;45500;-75
2021/12/29 08:19:44;;;;;;;;;2.00;1.00;;;;;10.93;87.63;100386.94;5087287;27;46285;-75
2021/12/29 08:22:10;;;;;;;;;2.00;2.00;;;;;10.96;87.88;100398.00;5088809;27;45931;-76
2021/12/29 08:24:36;;;;;;;;;2.33;2.33;;;;;10.98;87.84;100408.47;5087284;27;45233;-76
2021/12/29 08:27:02;;;;;;;;;2.00;2.00;;;;;11.01;87.96;100388.66;5087858;27;45510;-75
2021/12/29 08:29:28;;;;;;;;;3.00;3.00;;;;;11.03;87.96;100395.44;5094671;27;47654;-77
2021/12/29 08:31:55;;;;;;;;;4.00;4.00;;;;;11.04;87.97;100402.41;5091230;27;45922;-76
2021/12/29 08:34:20;;;;;;;;;4.00;4.00;;;;;10.99;87.94;100388.84;5089620;27;45396;-76
2021/12/29 08:36:46;;;;;;;;;3.00;3.00;;;;;11.02;88.03;100406.25;5089818;27;45375;-76
2021/12/29 08:39:11;;;;;;;;;2.67;2.67;;;;;11.11;88.13;100418.47;5093990;27;46403;-76
2021/12/29 08:41:37;;;;;;;;;3.00;3.00;;;;;11.03;88.11;100411.41;5097355;27;47127;-76
2021/12/29 08:44:02;;;;;;;;;4.67;4.67;;;;;11.14;88.11;100422.56;5098735;27;45281;-77
2021/12/29 08:46:28;;;;;;;;;6.67;6.67;;;;;11.20;88.36;100432.47;5100759;27;45251;-76
2021/12/29 08:48:55;;;;;;;;;12.00;12.00;;;;;11.22;88.12;100427.78;5098521;27;46316;-77
2021/12/29 08:51:20;;;;;;;;;10.00;8.00;;;;;11.15;88.16;100400.28;5099367;27;45278;-76
2021/12/29 08:53:47;;;;;;;;;2.67;2.67;;;;;11.18;88.42;100408.72;5099111;27;45338;-76
2021/12/29 08:56:16;;;;;;;;;2.67;2.67;;;;;11.19;88.25;100402.38;5099690;27;45448;-77
2021/12/29 08:58:42;;;;;;;;;3.00;3.00;;;;;11.32;88.53;100408.88;5096936;27;46671;-76
2021/12/29 09:01:08;;;;;;;;;6.33;6.00;;;;;11.31;88.33;100391.28;5102483;27;45507;-76
2021/12/29 09:03:33;;;;;;;;;4.67;3.67;;;;;11.40;88.06;100411.41;5102878;27;45352;-76
2021/12/29 09:05:58;;;;;;;;;3.00;3.00;;;;;11.34;88.52;100404.19;5102716;27;45447;-76
2021/12/29 09:08:24;;;;;;;;;1.00;1.00;;;;;11.38;88.12;100407.28;5103066;27;45315;-75
2021/12/29 09:10:49;;;;;;;;;1.33;1.33;;;;;11.46;88.56;100421.31;5109019;27;45943;-76
2021/12/29 09:13:15;;;;;;;;;2.00;1.00;;;;;11.51;88.49;100422.56;5103415;27;45356;-76
2021/12/29 09:15:41;;;;;;;;;1.00;1.00;;;;;11.50;88.69;100408.47;5101416;27;46403;-77
2021/12/29 09:18:07;;;;;;;;;0.67;0.67;;;;;11.61;88.39;100413.28;5102849;27;45319;-76
2021/12/29 09:20:33;;;;;;;;;2.00;2.00;;;;;11.66;88.58;100402.06;5092877;27;46110;-76
2021/12/29 09:23:07;;;;;;;;;1.00;1.00;;;;;11.61;88.01;100410.63;5102841;27;45301;-76
2021/12/29 09:25:35;;;;;;;;;3.67;3.67;;;;;11.70;88.57;100407.84;5102965;27;45678;-76
2021/12/29 09:28:01;;;;;;;;;1.00;1.00;;;;;11.72;88.44;100406.63;5103072;27;45688;-76
2021/12/29 09:30:31;;;;;;;;;0.33;0.33;;;;;11.77;88.77;100397.25;5101856;27;48263;-76
2021/12/29 09:32:57;;;;;;;;;1.33;1.33;;;;;11.76;88.33;100383.09;5104243;27;45362;-77
2021/12/29 09:35:23;;;;;;;;;8.00;8.00;;;;;11.82;88.46;100397.50;5108011;27;45626;-77
2021/12/29 09:37:51;;;;;;;;;0.33;0.33;;;;;11.88;88.41;100412.69;5120874;27;45340;-77
2021/12/29 09:40:20;;;;;;;;;0.33;0.33;;;;;11.95;88.42;100413.63;5126184;27;46235;-77
2021/12/29 09:42:45;;;;;;;;;0.00;0.00;;;;;11.95;88.21;100416.28;5131839;27;45266;-77
2021/12/29 09:45:11;;;;;;;;;0.33;0.33;;;;;11.98;88.44;100417.72;5132521;27;45349;-77
2021/12/29 09:47:37;;;;;;;;;1.00;1.00;;;;;11.98;88.15;100413.19;5133840;27;45243;-77
2021/12/29 09:50:07;;;;;;;;;1.00;1.00;;;;;12.05;88.53;100404.44;5129518;27;46083;-77
2021/12/29 09:52:33;;;;;;;;;1.33;1.33;;;;;12.05;88.54;100396.47;5126176;27;45297;-76
2021/12/29 09:55:04;;;;;;;;;1.33;1.33;;;;;12.06;88.77;100395.47;5130457;27;45294;-77
2021/12/29 09:57:33;;;;;;;;;3.33;2.67;;;;;12.18;88.51;100404.59;5128066;27;46443;-77
2021/12/29 09:59:58;;;;;;;;;3.33;3.00;;;;;12.19;88.61;100398.25;5124221;27;46225;-77
2021/12/29 10:02:24;;;;;;;;;4.33;3.33;;;;;12.27;88.33;100404.47;5123089;27;45382;-79
2021/12/29 10:04:49;;;;;;;;;2.33;2.00;;;;;12.27;88.88;100404.47;5123905;27;45295;-77
2021/12/29 10:07:18;;;;;;;;;1.33;1.33;;;;;12.29;88.61;100387.25;5125192;27;45548;-77
2021/12/29 10:09:44;;;;;;;;;2.00;1.33;;;;;12.39;88.37;100402.09;5121196;27;46584;-77
2021/12/29 10:12:17;;;;;;;;;2.67;2.00;;;;;12.34;88.38;100390.16;5127950;27;45194;-76
2021/12/29 10:14:47;;;;;;;;;4.00;3.00;;;;;12.38;88.62;100395.91;5143201;27;44592;-77
2021/12/29 10:17:13;;;;;;;;;1.67;1.33;;;;;12.43;89.12;100404.16;5139692;27;45071;-76
2021/12/29 10:19:38;;;;;;;;;4.00;4.00;;;;;12.43;88.55;100403.34;5139166;27;44945;-76
2021/12/29 10:22:04;;;;;;;;;2.00;2.00;;;;;12.45;88.47;100402.09;5138985;27;45993;-77
2021/12/29 10:24:29;;;;;;;;;2.67;2.67;;;;;12.43;89.24;100398.00;5119086;27;45525;-77
2021/12/29 10:26:57;;;;;;;;;3.00;3.00;;;;;12.52;89.16;100406.66;5111432;27;45465;-77
2021/12/29 10:29:23;;;;;;;;;3.33;3.33;;;;;12.50;88.87;100391.69;5099113;27;48478;-77
2021/12/29 10:31:48;;;;;;;;;5.00;4.00;;;;;12.59;88.73;100410.19;5092725;27;45534;-77
2021/12/29 10:34:19;;;;;;;;;4.00;3.00;;;;;12.59;89.05;100396.88;5099168;27;45347;-76
2021/12/29 10:37:07;;;;;;;;;5.67;4.67;;;;;12.63;89.06;100406.94;5094700;27;45382;-76
2021/12/29 10:39:42;;;;;;;;;4.67;4.67;;;;;12.65;89.10;100395.25;5094059;27;46152;-76
2021/12/29 10:42:16;;;;;;;;;6.33;6.00;;;;;12.71;89.02;100399.81;5105966;27;44793;-77
2021/12/29 10:44:43;;;;;;;;;7.00;7.00;;;;;12.75;89.15;100401.03;5104198;27;45148;-76
2021/12/29 10:47:28;;;;;;;;;8.00;7.00;;;;;12.74;89.12;100400.25;5106991;27;46356;-76
2021/12/29 10:50:25;;;;;;;;;7.67;7.67;;;;;12.83;89.19;100405.41;5097717;27;45436;-76
2021/12/29 10:52:53;;;;;;;;;9.33;8.00;;;;;12.90;89.26;100406.25;5103084;27;45044;-77
2021/12/29 10:55:32;;;;;;;;;10.33;9.33;;;;;12.88;89.19;100409.13;5099744;27;44838;-77
2021/12/29 10:58:08;;;;;;;;;8.67;8.67;;;;;12.97;89.34;100422.31;5101203;27;45285;-77
2021/12/29 11:00:37;;;;;;;;;8.00;8.00;;;;;12.94;89.00;100415.53;5101116;27;45265;-77
2021/12/29 11:03:15;;;;;;;;;7.00;7.00;;;;;12.98;89.42;100422.09;5109082;27;45463;-77
2021/12/29 11:05:42;;;;;;;;;6.33;6.33;;;;;13.03;89.34;100429.53;5094724;27;45241;-77
2021/12/29 11:08:10;;;;;;;;;7.67;7.33;;;;;13.06;89.70;100423.78;5101773;27;46866;-77
2021/12/29 11:10:36;;;;;;;;;9.00;8.00;;;;;13.06;89.52;100421.13;5096344;27;46106;-76
2021/12/29 11:13:02;;;;;;;;;6.33;6.00;;;;;13.16;89.81;100425.25;5087289;27;45334;-77
2021/12/29 11:15:41;;;;;;;;;7.33;6.00;;;;;13.20;89.69;100426.50;5080614;27;45381;-76
2021/12/29 11:18:10;;;;;;;;;5.67;5.67;;;;;13.23;90.08;100432.25;5096499;27;46092;-77
2021/12/29 11:20:38;;;;;;;;;7.00;6.33;;;;;13.29;89.94;100438.63;5095047;27;48463;-77
2021/12/29 11:23:19;;;;;;;;;5.33;5.33;;;;;13.33;90.31;100441.75;5085924;27;45308;-77
2021/12/29 11:25:45;;;;;;;;;6.00;6.00;;;;;13.33;90.17;100421.22;5090189;28;45232;-76
2021/12/29 11:28:27;;;;;;;;;4.33;4.33;;;;;13.40;90.32;100426.56;5092690;27;45336;-76
2021/12/29 11:30:56;;;;;;;;;7.00;6.67;;;;;13.34;90.71;100412.19;5091445;28;48348;-76
2021/12/29 11:33:22;;;;;;;;;5.00;5.00;;;;;13.45;90.50;100431.31;5097333;27;45196;-77